Time;durP1;ratioP1;P1;durP2;ratioP2;P2;SDS_P1;SDS_P2;PMS_P1;PMS_P2;Temp;Humidity;BMP_temperature;BMP_pressure;BME280_temperature;BME280_humidity;BME280_pressure;Samples;Min_cycle;Max_cycle;Signal;HPM_P1;HPM_P2
2022/07/23 00:02:03;;;;;;;4.05;3.20;;;;;;;15.28;100.00;101924.94;6189077;23;20025;-80
2022/07/23 00:04:32;;;;;;;4.97;3.15;;;;;;;15.25;100.00;101927.59;6145109;23;20234;-79
2022/07/23 00:07:00;;;;;;;4.20;3.22;;;;;;;15.25;100.00;101924.94;6211201;23;20021;-79
2022/07/23 00:09:31;;;;;;;3.33;3.03;;;;;;;15.24;100.00;101919.66;6185839;23;20127;-79
2022/07/23 00:12:00;;;;;;;7.40;2.92;;;;;;;15.24;100.00;101917.00;6216034;23;20462;-79
2022/07/23 00:14:28;;;;;;;3.00;2.60;;;;;;;15.24;100.00;101927.63;6185652;23;20024;-80
2022/07/23 00:16:57;;;;;;;5.93;3.33;;;;;;;15.24;100.00;101924.94;6188415;23;20462;-79
2022/07/23 00:19:29;;;;;;;6.38;3.20;;;;;;;15.19;100.00;101920.50;6134156;23;20370;-79
2022/07/23 00:21:57;;;;;;;3.78;3.05;;;;;;;15.18;100.00;101925.84;6162081;23;20017;-79
2022/07/23 00:24:26;;;;;;;4.32;3.15;;;;;;;15.16;100.00;101923.16;6186531;23;20501;-79
2022/07/23 00:26:54;;;;;;;6.22;3.42;;;;;;;15.16;100.00;101919.59;6181771;23;20028;-79
2022/07/23 00:29:23;;;;;;;4.30;2.90;;;;;;;15.15;100.00;101916.06;6213499;23;20016;-80
2022/07/23 00:31:51;;;;;;;4.60;3.15;;;;;;;15.13;100.00;101917.84;6214117;23;20023;-79
2022/07/23 00:34:19;;;;;;;6.43;3.30;;;;;;;15.13;100.00;101925.81;6176881;23;20017;-79
2022/07/23 00:36:48;;;;;;;3.38;3.00;;;;;;;15.11;100.00;101924.91;6150570;23;20028;-79
2022/07/23 00:39:17;;;;;;;3.55;3.28;;;;;;;15.11;100.00;101916.09;6181614;23;20027;-79
2022/07/23 00:41:47;;;;;;;3.40;3.10;;;;;;;15.11;100.00;101919.63;6158097;23;20048;-79
2022/07/23 00:44:23;;;;;;;6.40;3.53;;;;;;;15.10;100.00;101917.81;6191212;23;20021;-79
2022/07/23 00:46:57;;;;;;;5.25;4.30;;;;;;;15.07;100.00;101909.00;6216753;23;20020;-79
2022/07/23 00:49:30;;;;;;;3.88;3.53;;;;;;;15.02;100.00;101915.16;6196380;23;20024;-80
2022/07/23 00:52:01;;;;;;;5.13;3.92;;;;;;;14.99;100.00;101911.66;6222082;23;20021;-80
2022/07/23 00:54:30;;;;;;;9.88;3.67;;;;;;;14.98;100.00;101915.16;6174435;23;20035;-80
2022/07/23 00:56:58;;;;;;;3.50;3.20;;;;;;;14.97;100.00;101921.34;6109750;23;20302;-80
2022/07/23 00:59:27;;;;;;;5.82;3.60;;;;;;;14.95;100.00;101915.16;6172610;23;20024;-80
2022/07/23 01:01:57;;;;;;;6.97;3.85;;;;;;;14.93;100.00;101911.59;6140662;23;20021;-87
2022/07/23 01:04:27;;;;;;;6.57;4.20;;;;;;;14.91;100.00;101913.38;6133053;23;20018;-87
2022/07/23 01:06:55;;;;;;;5.53;3.60;;;;;;;14.89;100.00;101910.72;6127705;23;20021;-86
2022/07/23 01:09:24;;;;;;;4.85;3.13;;;;;;;14.87;100.00;101904.53;6162008;23;20017;-86
2022/07/23 01:11:55;;;;;;;4.18;3.20;;;;;;;14.86;100.00;101905.41;6150808;23;20512;-86
2022/07/23 01:14:23;;;;;;;3.45;3.03;;;;;;;14.86;100.00;101901.84;6116171;23;20013;-86
2022/07/23 01:16:52;;;;;;;3.65;2.97;;;;;;;14.84;100.00;101893.91;6102599;23;20010;-86
2022/07/23 01:19:21;;;;;;;3.75;2.80;;;;;;;14.79;100.00;101896.53;6164984;23;20021;-86
2022/07/23 01:21:51;;;;;;;3.85;2.55;;;;;;;14.75;100.00;101905.38;6125008;23;20507;-86
2022/07/23 01:24:20;;;;;;;3.63;3.08;;;;;;;14.71;100.00;101898.31;6127957;23;20006;-86
2022/07/23 01:26:57;;;;;;;5.03;2.80;;;;;;;14.66;100.00;101892.09;6161924;23;20132;-86
2022/07/23 01:29:26;;;;;;;4.80;2.70;;;;;;;14.62;100.00;101885.00;6140255;23;20018;-86
2022/07/23 01:31:56;;;;;;;4.30;2.85;;;;;;;14.58;100.00;101891.19;6134666;23;20036;-86
2022/07/23 01:34:24;;;;;;;5.00;2.78;;;;;;;14.55;100.00;101886.69;6117065;23;20020;-86
2022/07/23 01:36:52;;;;;;;6.03;3.53;;;;;;;14.53;100.00;101887.59;6123376;23;20006;-87
2022/07/23 01:39:21;;;;;;;5.95;3.90;;;;;;;14.49;100.00;101880.50;6138411;23;20021;-87
2022/07/23 01:41:52;;;;;;;7.72;3.50;;;;;;;14.45;100.00;101884.91;6102046;23;20021;-86
2022/07/23 01:44:22;;;;;;;3.75;3.45;;;;;;;14.41;100.00;101881.38;6116539;23;20020;-85
2022/07/23 01:46:51;;;;;;;4.78;3.95;;;;;;;14.38;100.00;101885.75;6135368;23;20005;-87
2022/07/23 01:49:20;;;;;;;6.18;4.55;;;;;;;14.36;100.00;101880.44;6103835;23;20028;-86
2022/07/23 01:52:10;;;;;;;10.68;5.22;;;;;;;14.33;100.00;101875.16;6099624;23;20025;-87
2022/07/23 01:54:44;;;;;;;8.55;5.35;;;;;;;14.31;100.00;101879.56;6112015;23;20010;-86
2022/07/23 01:57:13;;;;;;;11.98;5.70;;;;;;;14.31;100.00;101874.25;6077882;23;20349;-85
2022/07/23 01:59:42;;;;;;;9.55;5.22;;;;;;;14.28;100.00;101874.25;6134526;23;20009;-87
2022/07/23 02:02:11;;;;;;;6.28;5.18;;;;;;;14.25;100.00;101871.56;6121088;23;20029;-85
2022/07/23 02:04:39;;;;;;;6.22;5.70;;;;;;;14.23;100.00;101858.34;6122901;23;20021;-88
2022/07/23 02:07:08;;;;;;;11.50;5.97;;;;;;;14.22;100.00;101853.00;6125022;23;20017;-87
2022/07/23 02:09:36;;;;;;;8.50;5.25;;;;;;;14.20;100.00;101858.31;6121854;23;20029;-86
2022/07/23 02:12:05;;;;;;;7.70;5.15;;;;;;;14.22;100.00;101858.31;6122375;23;20013;-86
2022/07/23 02:14:33;;;;;;;7.90;5.82;;;;;;;14.22;100.00;101856.53;6099630;23;20436;-86
2022/07/23 02:17:06;;;;;;;7.47;5.95;;;;;;;14.25;100.00;101855.66;6109995;23;20018;-86
2022/07/23 02:19:36;;;;;;;6.77;5.53;;;;;;;14.25;100.00;101853.00;6131487;23;20018;-87
2022/07/23 02:22:04;;;;;;;7.30;5.97;;;;;;;14.26;100.00;101851.25;6099909;23;20237;-87
2022/07/23 02:24:34;;;;;;;6.25;5.38;;;;;;;14.27;100.00;101842.41;6121053;23;20041;-86
2022/07/23 02:27:03;;;;;;;7.03;5.93;;;;;;;14.29;100.00;101846.88;6121681;23;20314;-86
2022/07/23 02:29:33;;;;;;;6.38;5.30;;;;;;;14.30;100.00;101848.63;6110887;23;20021;-86
2022/07/23 02:32:02;;;;;;;10.43;5.80;;;;;;;14.30;100.00;101843.31;6097417;23;20258;-87
2022/07/23 02:34:30;;;;;;;5.22;4.72;;;;;;;14.33;100.00;101845.06;6108048;23;20028;-86
2022/07/23 02:36:59;;;;;;;5.97;5.35;;;;;;;14.36;100.00;101845.97;6108002;23;20022;-87
2022/07/23 02:39:29;;;;;;;;;;;;;;;14.39;100.00;101843.34;6090123;23;20026;-86
2022/07/23 02:41:58;;;;;;;5.25;4.38;;;;;;;14.43;100.00;101839.81;6081455;23;20011;-85
2022/07/23 02:44:27;;;;;;;4.38;3.90;;;;;;;14.47;100.00;101840.72;6111818;23;19998;-86
2022/07/23 02:46:56;;;;;;;5.75;4.75;;;;;;;14.50;100.00;101840.75;6107524;23;20207;-87
2022/07/23 02:49:24;;;;;;;4.70;4.05;;;;;;;14.53;100.00;101839.84;6107507;23;20037;-87
2022/07/23 02:51:53;;;;;;;5.25;4.20;;;;;;;14.56;100.00;101840.75;6130852;23;20045;-87
2022/07/23 02:54:21;;;;;;;6.97;4.07;;;;;;;14.58;100.00;101843.44;6097298;23;20017;-86
2022/07/23 02:56:53;;;;;;;4.20;3.78;;;;;;;14.59;100.00;101848.75;6126285;23;20391;-87
2022/07/23 02:59:22;;;;;;;6.28;4.43;;;;;;;14.60;100.00;101845.22;6109885;23;20018;-86
2022/07/23 03:01:51;;;;;;;5.30;3.40;;;;;;;14.62;100.00;101837.25;6139992;23;20305;-86
2022/07/23 03:04:20;;;;;;;5.28;4.10;;;;;;;14.62;100.00;101835.47;6162503;23;20017;-86
2022/07/23 03:06:49;;;;;;;5.70;3.85;;;;;;;14.61;100.00;101844.34;6078301;23;20116;-86
2022/07/23 03:09:17;;;;;;;6.95;3.85;;;;;;;14.61;100.00;101843.44;6111236;23;20351;-86
2022/07/23 03:11:46;;;;;;;8.65;3.63;;;;;;;14.60;100.00;101839.03;6115006;23;20024;-87
2022/07/23 03:14:16;;;;;;;3.95;3.10;;;;;;;14.60;100.00;101837.25;6168233;23;20020;-85
2022/07/23 03:16:44;;;;;;;6.30;3.60;;;;;;;14.59;100.00;101834.59;6189281;23;20021;-87
2022/07/23 03:19:13;;;;;;;5.00;3.85;;;;;;;14.58;100.00;101832.84;6143860;23;20013;-87
2022/07/23 03:21:42;;;;;;;4.13;3.75;;;;;;;14.56;100.00;101834.56;6138164;23;20025;-86
2022/07/23 03:24:11;;;;;;;6.70;4.18;;;;;;;14.54;100.00;101831.03;6136653;23;20023;-86
2022/07/23 03:26:40;;;;;;;7.97;4.40;;;;;;;14.52;100.00;101832.78;6153131;23;20017;-87
2022/07/23 03:29:09;;;;;;;7.78;5.05;;;;;;;14.51;100.00;101833.66;6084418;23;20061;-88
2022/07/23 03:31:37;;;;;;;5.93;4.28;;;;;;;14.49;100.00;101832.78;6159002;23;20028;-87
2022/07/23 03:34:06;;;;;;;6.30;4.63;;;;;;;14.48;100.00;101825.69;6134097;23;20554;-87
2022/07/23 03:36:34;;;;;;;8.00;4.38;;;;;;;14.47;100.00;101832.75;6132896;23;20415;-86
2022/07/23 03:39:03;;;;;;;5.80;5.10;;;;;;;14.47;100.00;101832.75;6167264;23;20466;-87
2022/07/23 03:41:32;;;;;;;5.78;4.82;;;;;;;14.46;100.00;101833.66;6120135;23;20024;-86
2022/07/23 03:44:01;;;;;;;7.97;5.35;;;;;;;14.48;100.00;101837.19;6141099;23;20150;-88
2022/07/23 03:46:29;;;;;;;7.45;5.10;;;;;;;14.47;100.00;101838.06;6136596;23;20001;-87
2022/07/23 03:48:58;;;;;;;7.13;4.95;;;;;;;14.46;100.00;101846.91;6143722;23;20047;-87
2022/07/23 03:51:26;;;;;;;5.55;5.03;;;;;;;14.45;100.00;101841.59;6174642;23;20021;-87
2022/07/23 03:53:55;;;;;;;6.95;5.05;;;;;;;14.45;100.00;101838.94;6114198;23;20056;-87
2022/07/23 03:56:24;;;;;;;11.88;5.65;;;;;;;14.43;100.00;101839.81;6117457;23;20001;-87
2022/07/23 03:58:53;;;;;;;5.60;4.88;;;;;;;14.43;100.00;101845.13;6166970;23;20624;-87
2022/07/23 04:01:21;;;;;;;4.85;4.38;;;;;;;14.45;100.00;101845.13;6194071;23;20458;-86
2022/07/23 04:03:50;;;;;;;8.38;5.10;;;;;;;14.46;100.00;101853.97;6158357;23;20118;-87
2022/07/23 04:06:19;;;;;;;5.63;5.03;;;;;;;14.46;100.00;101856.63;6115815;23;20032;-86
2022/07/23 04:08:52;;;;;;;9.07;5.75;;;;;;;14.47;100.00;101850.44;6134738;23;20127;-86
2022/07/23 04:11:22;;;;;;;;;;;;;;;14.45;100.00;101850.44;6136622;23;20017;-86
2022/07/23 04:13:51;;;;;;;8.82;5.20;;;;;;;14.45;100.00;101853.09;6149352;23;20143;-86
2022/07/23 04:16:22;;;;;;;7.55;5.18;;;;;;;14.45;100.00;101853.09;6136706;23;20013;-87
2022/07/23 04:18:51;;;;;;;8.45;5.18;;;;;;;14.46;100.00;101852.22;6104642;23;20658;-88
2022/07/23 04:21:23;;;;;;;8.27;4.60;;;;;;;14.48;100.00;101852.19;6168094;23;20020;-87
2022/07/23 04:23:51;;;;;;;6.38;4.15;;;;;;;14.47;100.00;101856.63;6163445;23;20032;-86
2022/07/23 04:26:21;;;;;;;8.88;5.53;;;;;;;14.47;100.00;101853.97;6110560;23;20342;-86
2022/07/23 04:28:50;;;;;;;11.75;5.43;;;;;;;14.47;100.00;101861.06;6191529;23;20021;-88
2022/07/23 04:31:18;;;;;;;6.03;5.20;;;;;;;14.48;100.00;101861.06;6168756;23;20017;-86
2022/07/23 04:33:47;;;;;;;6.72;4.97;;;;;;;14.50;100.00;101866.34;6166518;23;20028;-86
2022/07/23 04:36:15;;;;;;;5.38;4.90;;;;;;;14.51;100.00;101858.41;6144607;23;20021;-87
2022/07/23 04:38:43;;;;;;;7.45;4.43;;;;;;;14.52;100.00;101856.66;6139844;23;20028;-87
2022/07/23 04:41:16;;;;;;;7.15;4.75;;;;;;;14.53;100.00;101859.28;6104642;23;20021;-88
2022/07/23 04:43:45;;;;;;;6.97;4.90;;;;;;;14.55;100.00;101856.66;6191238;23;20021;-87
2022/07/23 04:46:14;;;;;;;6.00;5.32;;;;;;;14.55;100.00;101854.88;6140049;23;20021;-87
2022/07/23 04:48:48;;;;;;;6.72;5.25;;;;;;;14.57;100.00;101862.88;6143783;23;20500;-86
2022/07/23 04:51:18;;;;;;;5.63;5.13;;;;;;;14.58;100.00;101860.25;6135429;23;20675;-87
2022/07/23 04:53:46;;;;;;;10.32;5.15;;;;;;;14.59;100.00;101861.13;6138559;23;20469;-86
2022/07/23 04:56:15;;;;;;;5.75;5.20;;;;;;;14.61;100.00;101852.31;6133019;23;20024;-87
2022/07/23 04:58:44;;;;;;;6.57;4.68;;;;;;;14.63;100.00;101854.97;6128697;23;20021;-86
2022/07/23 05:01:12;;;;;;;7.97;5.07;;;;;;;14.60;100.00;101861.13;6135615;23;20017;-86
2022/07/23 05:03:42;;;;;;;8.13;5.57;;;;;;;14.59;100.00;101856.72;6156533;23;20347;-86
2022/07/23 05:06:10;;;;;;;6.95;5.38;;;;;;;14.58;100.00;101854.06;6132684;23;20461;-86
2022/07/23 05:08:39;;;;;;;10.50;5.30;;;;;;;14.56;100.00;101861.97;6138222;23;20027;-87
2022/07/23 05:11:07;;;;;;;6.65;4.80;;;;;;;14.57;100.00;101860.22;6108639;23;20005;-87
2022/07/23 05:13:36;;;;;;;7.65;5.05;;;;;;;14.58;100.00;101869.97;6177125;23;20017;-86
2022/07/23 05:16:07;;;;;;;7.50;4.82;;;;;;;14.61;100.00;101872.59;6163415;23;20024;-87
2022/07/23 05:18:37;;;;;;;5.85;4.85;;;;;;;14.62;100.00;101869.97;6193509;23;20021;-85
2022/07/23 05:21:05;;;;;;;9.32;4.53;;;;;;;14.66;100.00;101862.91;6169285;23;20021;-86
2022/07/23 05:23:34;;;;;;;4.85;4.20;;;;;;;14.70;100.00;101863.81;6102982;23;20021;-86
2022/07/23 05:26:03;;;;;;;6.05;4.10;;;;;;;14.73;100.00;101872.66;6141446;23;20028;-86
2022/07/23 05:28:33;;;;;;;4.95;3.50;;;;;;;14.78;100.00;101872.66;6155394;23;20025;-86
2022/07/23 05:31:03;;;;;;;4.55;3.28;;;;;;;14.82;100.00;101878.00;6142848;23;20115;-87
2022/07/23 05:33:32;;;;;;;;;;;;;;;14.86;100.00;101876.22;6110178;23;20028;-86
2022/07/23 05:36:02;;;;;;;4.78;3.70;;;;;;;14.91;100.00;101884.19;6166775;23;19922;-86
2022/07/23 05:38:33;;;;;;;3.95;3.58;;;;;;;14.95;100.00;101878.91;6131352;23;20442;-86
2022/07/23 05:41:06;;;;;;;8.05;3.53;;;;;;;15.03;100.00;101878.91;6165800;23;20207;-87
2022/07/23 05:43:36;;;;;;;5.50;3.58;;;;;;;15.11;100.00;101881.56;6165067;23;20001;-87
2022/07/23 05:46:10;;;;;;;4.00;3.38;;;;;;;15.19;100.00;101885.97;6137691;23;20013;-86
2022/07/23 05:48:42;;;;;;;4.38;3.47;;;;;;;15.26;100.00;101878.91;6086627;23;20032;-86
2022/07/23 05:51:30;;;;;;;6.97;3.47;;;;;;;15.34;100.00;101890.41;6145469;23;20028;-86
2022/07/23 05:53:58;;;;;;;7.32;3.25;;;;;;;15.43;100.00;101894.84;6104511;23;20158;-87
2022/07/23 05:56:31;;;;;;;3.60;3.25;;;;;;;15.54;100.00;101894.84;6123620;23;20000;-86
2022/07/23 05:59:00;;;;;;;5.00;3.20;;;;;;;15.61;100.00;101893.94;6143457;23;20289;-86
2022/07/23 06:01:30;;;;;;;2.65;2.45;;;;;;;15.67;100.00;101901.03;6170735;23;20016;-86
2022/07/23 06:04:07;;;;;;;3.33;2.85;;;;;;;15.72;100.00;101899.25;6171983;23;20228;-86
2022/07/23 06:06:39;;;;;;;3.38;3.08;;;;;;;15.79;100.00;101896.63;6167585;23;20024;-86
2022/07/23 06:09:13;;;;;;;;;;;;;;;15.85;100.00;101898.38;6133731;23;20354;-85
2022/07/23 06:11:42;;;;;;;4.60;2.85;;;;;;;15.96;100.00;101899.25;6165465;23;20246;-86
2022/07/23 06:14:10;;;;;;;2.78;2.67;;;;;;;16.06;100.00;101899.22;6169005;23;20442;-86
2022/07/23 06:16:59;;;;;;;3.22;2.72;;;;;;;16.20;100.00;101899.16;6140506;23;20017;-88
2022/07/23 06:19:28;;;;;;;7.00;2.72;;;;;;;16.31;100.00;101892.94;6156231;23;20027;-86
2022/07/23 06:21:56;;;;;;;3.80;2.85;;;;;;;16.42;100.00;101894.66;6143238;23;20035;-87
2022/07/23 06:24:25;;;;;;;6.30;2.97;;;;;;;16.49;100.00;101886.63;6142006;23;20017;-87
2022/07/23 06:26:54;;;;;;;3.10;2.83;;;;;;;16.56;100.00;101888.38;6115745;23;20001;-87
2022/07/23 06:29:22;;;;;;;2.88;2.53;;;;;;;16.60;100.00;101885.69;6145364;23;20020;-86
2022/07/23 06:31:52;;;;;;;3.10;2.60;;;;;;;16.63;100.00;101889.22;6121479;23;20139;-87
2022/07/23 06:34:20;;;;;;;5.18;3.08;;;;;;;16.70;100.00;101884.75;6146153;23;20017;-87
2022/07/23 06:36:49;;;;;;;2.85;2.10;;;;;;;16.70;100.00;101898.06;6165979;23;20052;-86
2022/07/23 06:39:17;;;;;;;3.15;2.05;;;;;;;16.70;100.00;101898.94;6133356;23;20028;-86
2022/07/23 06:41:49;;;;;;;2.13;1.88;;;;;;;16.69;100.00;101898.94;6186621;23;20016;-86
2022/07/23 06:44:19;;;;;;;;;;;;;;;16.70;100.00;101898.94;6157410;23;20005;-86
2022/07/23 06:46:50;;;;;;;;;;;;;;;16.73;100.00;101898.94;6117824;23;19920;-86
2022/07/23 06:49:19;;;;;;;1.30;1.20;;;;;;;16.79;100.00;101897.16;6168879;23;19906;-86
2022/07/23 06:51:50;;;;;;;3.08;2.10;;;;;;;16.81;100.00;101903.34;6157170;23;20001;-86
2022/07/23 06:54:18;;;;;;;2.47;1.40;;;;;;;16.79;100.00;101913.13;6154011;22;20032;-86
2022/07/23 06:56:47;;;;;;;3.65;1.63;;;;;;;16.74;100.00;101914.00;6136861;23;20017;-86
2022/07/23 06:59:16;;;;;;;3.65;1.40;;;;;;;16.73;100.00;101906.06;6167046;23;20339;-86
2022/07/23 07:01:45;;;;;;;1.98;1.45;;;;;;;16.68;100.00;101902.53;6126058;23;20032;-86
2022/07/23 07:04:13;;;;;;;1.20;1.10;;;;;;;16.62;100.00;101908.75;6169189;23;20031;-86
2022/07/23 07:06:42;;;;;;;1.88;1.10;;;;;;;16.61;100.00;101914.09;6131672;23;20459;-87
2022/07/23 07:09:10;;;;;;;2.53;1.25;;;;;;;16.57;100.00;101919.41;6141404;23;20017;-86
2022/07/23 07:11:38;;;;;;;3.08;1.20;;;;;;;16.51;100.00;101918.56;6083872;23;20025;-87
2022/07/23 07:14:07;;;;;;;1.10;1.00;;;;;;;16.46;100.00;101929.22;6183146;23;20065;-86
2022/07/23 07:16:35;;;;;;;0.98;0.98;;;;;;;16.40;100.00;101936.34;6161299;23;20005;-87
2022/07/23 07:19:04;;;;;;;3.33;1.20;;;;;;;16.36;100.00;101933.69;6150458;23;20689;-86
2022/07/23 07:21:33;;;;;;;1.63;0.90;;;;;;;16.33;100.00;101936.38;6084473;23;20021;-86
2022/07/23 07:24:06;;;;;;;3.10;1.48;;;;;;;16.33;100.00;101949.69;6136145;23;20358;-86
2022/07/23 07:26:36;;;;;;;1.67;1.48;;;;;;;16.36;100.00;101946.97;6130810;23;20013;-87
2022/07/23 07:29:05;;;;;;;3.05;1.80;;;;;;;16.42;100.00;101951.41;6164529;23;20017;-86
2022/07/23 07:31:34;;;;;;;1.55;1.45;;;;;;;16.49;100.00;101949.63;6163028;23;20027;-86
2022/07/23 07:34:02;;;;;;;1.75;1.10;;;;;;;16.55;100.00;101950.47;6126389;23;20017;-87
2022/07/23 07:36:37;;;;;;;1.85;1.10;;;;;;;16.63;100.00;101954.88;6183092;23;20083;-86
2022/07/23 07:39:06;;;;;;;1.02;0.90;;;;;;;16.72;100.00;101952.16;6160072;23;20512;-86
2022/07/23 07:41:35;;;;;;;2.00;1.50;;;;;;;16.80;100.00;101952.13;6162332;23;20028;-86
2022/07/23 07:44:03;;;;;;;2.58;1.27;;;;;;;16.87;100.00;101945.91;6128781;23;20025;-88
2022/07/23 07:46:32;;;;;;;2.33;1.83;;;;;;;16.95;100.00;101950.28;6158036;23;20039;-87
2022/07/23 07:49:02;;;;;;;1.77;1.42;;;;;;;17.13;100.00;101959.97;6107136;23;20243;-86
2022/07/23 07:51:33;;;;;;;1.30;1.20;;;;;;;17.27;100.00;101951.00;6110864;23;20031;-88
2022/07/23 07:54:02;;;;;;;1.17;0.85;;;;;;;17.43;100.00;101958.00;6128249;23;20025;-86
2022/07/23 07:56:31;;;;;;;0.65;0.65;;;;;;;17.57;100.00;101955.19;6138238;23;20017;-88
2022/07/23 07:59:01;;;;;;;0.77;0.77;;;;;;;17.68;100.00;101957.78;6161544;23;20235;-88
2022/07/23 08:01:32;;;;;;;0.60;0.60;;;;;;;17.84;100.00;101964.75;6108857;23;20032;-86
2022/07/23 08:04:01;;;;;;;1.58;0.80;;;;;;;18.01;100.00;101956.59;6135131;23;20239;-88
2022/07/23 08:06:30;;;;;;;3.05;1.00;;;;;;;18.22;100.00;101966.19;6107851;23;20032;-87
2022/07/23 08:08:58;;;;;;;2.33;0.90;;;;;;;18.44;100.00;101971.28;6127746;23;20339;-88
2022/07/23 08:11:27;;;;;;;1.20;0.75;;;;;;;18.53;100.00;101968.50;6162664;23;20032;-88
2022/07/23 08:13:56;;;;;;;1.65;1.10;;;;;;;18.52;99.26;101972.06;6130079;23;20017;-88
2022/07/23 08:16:24;;;;;;;2.20;1.00;;;;;;;18.50;97.57;101977.41;6128864;23;20032;-88
2022/07/23 08:18:53;;;;;;;1.13;1.02;;;;;;;18.50;97.67;101974.72;6125070;23;20017;-89
2022/07/23 08:21:21;;;;;;;2.70;0.73;;;;;;;18.48;97.29;101968.53;6161862;23;20021;-89
2022/07/23 08:23:50;;;;;;;2.20;0.70;;;;;;;18.42;94.96;101967.75;6102116;23;20064;-87
2022/07/23 08:26:18;;;;;;;2.30;0.70;;;;;;;18.34;94.86;101975.84;6148606;23;20346;-87
2022/07/23 08:28:48;;;;;;;0.65;0.50;;;;;;;18.29;93.23;101977.66;6151900;23;20017;-89
2022/07/23 08:31:17;;;;;;;1.25;0.70;;;;;;;18.33;93.09;101975.84;6129271;23;20040;-87
2022/07/23 08:33:49;;;;;;;0.98;0.70;;;;;;;18.40;91.96;101981.09;6145555;23;20021;-87
2022/07/23 08:36:17;;;;;;;0.70;0.70;;;;;;;18.49;92.04;101964.09;6132785;23;20025;-87
2022/07/23 08:38:46;;;;;;;1.90;0.70;;;;;;;18.59;90.77;101971.09;6102868;23;20005;-86
2022/07/23 08:41:16;;;;;;;2.33;0.70;;;;;;;18.66;89.94;101970.13;6141598;23;20012;-87
2022/07/23 08:43:44;;;;;;;2.75;0.80;;;;;;;18.78;90.61;101974.41;6178016;23;20331;-87
2022/07/23 08:46:14;;;;;;;2.50;0.75;;;;;;;18.91;89.55;101966.28;6129538;23;20036;-87
2022/07/23 08:48:43;;;;;;;1.25;0.88;;;;;;;19.03;89.03;101961.63;6121917;23;20013;-89
2022/07/23 08:51:11;;;;;;;1.35;0.70;;;;;;;19.08;88.01;101959.78;6150109;23;20446;-89
2022/07/23 08:53:41;;;;;;;2.65;0.88;;;;;;;19.06;86.82;101960.72;6138148;23;20025;-88
2022/07/23 08:56:10;;;;;;;0.50;0.50;;;;;;;18.99;87.77;101967.91;6118546;23;20032;-88
2022/07/23 08:58:38;;;;;;;1.77;0.65;;;;;;;18.95;87.76;101968.00;6127017;23;20011;-88
2022/07/23 09:01:07;;;;;;;2.40;0.88;;;;;;;18.84;87.03;101970.81;6156167;23;20024;-88
2022/07/23 09:03:38;;;;;;;1.88;0.90;;;;;;;18.81;87.31;101973.50;6104636;23;20446;-87
2022/07/23 09:06:07;;;;;;;0.75;0.60;;;;;;;18.80;87.16;101969.03;6178378;23;20302;-87
2022/07/23 09:08:35;;;;;;;0.93;0.70;;;;;;;18.90;88.30;101965.38;6131363;23;20027;-87
2022/07/23 09:11:07;;;;;;;0.95;0.85;;;;;;;19.01;87.58;101971.44;6169438;23;20029;-85
2022/07/23 09:13:48;;;;;;;2.55;0.80;;;;;;;19.03;86.07;101977.66;6165684;23;20347;-81
2022/07/23 09:16:19;;;;;;;0.73;0.65;;;;;;;19.10;85.31;101970.44;6153409;23;20451;-83
2022/07/23 09:18:55;;;;;;;1.35;0.60;;;;;;;19.17;83.36;101972.13;6189670;23;20025;-85
2022/07/23 09:21:24;;;;;;;0.85;0.70;;;;;;;19.19;83.96;101972.97;6119674;23;20028;-85
2022/07/23 09:24:07;;;;;;;0.60;0.60;;;;;;;19.24;84.07;101970.22;6158291;23;20017;-85
2022/07/23 09:26:37;;;;;;;0.60;0.60;;;;;;;19.25;83.68;101975.56;6189800;23;20454;-86
2022/07/23 09:29:11;;;;;;;1.53;0.70;;;;;;;19.25;83.18;101970.22;6156037;23;20354;-85
2022/07/23 09:31:57;;;;;;;1.42;0.60;;;;;;;19.23;81.05;101971.16;6188207;23;20207;-84
2022/07/23 09:34:33;;;;;;;0.77;0.55;;;;;;;19.23;80.63;101969.34;6181660;23;20056;-83
2022/07/23 09:37:13;;;;;;;1.88;0.63;;;;;;;19.32;79.01;101972.78;6139702;23;20482;-83
2022/07/23 09:39:43;;;;;;;0.60;0.60;;;;;;;19.34;80.47;101985.25;6188922;23;20028;-83
2022/07/23 09:42:17;;;;;;;0.40;0.40;;;;;;;19.32;79.56;101984.38;6189342;23;20025;-83
2022/07/23 09:44:51;;;;;;;2.47;0.60;;;;;;;19.28;79.33;101979.97;6190006;23;20016;-83
2022/07/23 09:47:22;;;;;;;1.85;0.68;;;;;;;19.35;80.03;101984.31;6180592;23;20437;-84
2022/07/23 09:50:08;;;;;;;1.52;0.60;;;;;;;19.42;75.58;101982.44;6140630;23;20009;-84
2022/07/23 09:52:48;;;;;;;2.13;0.55;;;;;;;19.50;78.70;101987.66;6165015;23;20025;-84
2022/07/23 09:55:18;;;;;;;1.65;0.70;;;;;;;19.51;78.76;101989.41;6180723;23;20021;-84
2022/07/23 09:57:51;;;;;;;0.77;0.55;;;;;;;19.50;78.97;101988.53;6133685;23;20343;-85
2022/07/23 10:00:20;;;;;;;2.08;0.90;;;;;;;19.48;79.07;101993.03;6156229;23;20363;-85
2022/07/23 10:02:49;;;;;;;0.75;0.75;;;;;;;19.45;80.00;101983.28;6169249;23;20025;-82
2022/07/23 10:05:37;;;;;;;3.63;1.13;;;;;;;19.43;80.64;101993.13;6157110;23;20187;-83
2022/07/23 10:08:31;;;;;;;0.77;0.73;;;;;;;19.53;81.47;101993.84;6152180;23;20021;-84
2022/07/23 10:11:33;;;;;;;4.50;0.80;;;;;;;19.68;82.27;101982.91;6171266;23;20025;-84
2022/07/23 10:14:11;;;;;;;2.58;0.60;;;;;;;19.77;81.58;101992.59;6154904;23;20021;-85
2022/07/23 10:16:53;;;;;;;1.10;0.60;;;;;;;19.76;80.42;101989.94;6156750;23;20025;-85
2022/07/23 10:19:22;;;;;;;0.82;0.70;;;;;;;19.70;79.71;101988.22;6124142;23;20032;-84
2022/07/23 10:22:04;;;;;;;1.30;0.90;;;;;;;19.70;79.20;101990.00;6186619;23;20021;-84
2022/07/23 10:24:57;;;;;;;0.60;0.60;;;;;;;19.69;77.02;101991.78;6138825;23;20143;-84
2022/07/23 10:27:36;;;;;;;0.73;0.50;;;;;;;19.69;78.36;101989.13;6178815;23;20521;-84
2022/07/23 10:30:09;;;;;;;0.82;0.55;;;;;;;19.72;78.54;101993.56;6188720;23;20017;-83
2022/07/23 10:32:49;;;;;;;1.92;1.00;;;;;;;19.84;78.65;101990.69;6172086;23;20333;-84
2022/07/23 10:35:38;;;;;;;;;;;;;;;19.94;77.26;101994.97;6171225;23;20025;-84
2022/07/23 10:38:35;;;;;;;1.20;0.55;;;;;;;20.16;78.88;101992.78;6179104;23;19915;-84
2022/07/23 10:41:04;;;;;;;1.17;0.50;;;;;;;20.28;78.56;102004.16;6188215;23;20461;-85
2022/07/23 10:43:33;;;;;;;1.17;0.70;;;;;;;20.30;77.77;102005.91;6148823;23;20274;-84
2022/07/23 10:46:34;;;;;;;3.80;0.88;;;;;;;20.24;76.74;102008.69;6162353;23;20335;-83
2022/07/23 10:49:30;;;;;;;4.90;1.35;;;;;;;20.31;76.18;102001.44;6187138;23;20025;-82
2022/07/23 10:52:14;;;;;;;0.95;0.70;;;;;;;20.32;76.08;102011.22;6122819;23;20025;-84
2022/07/23 10:54:47;;;;;;;0.90;0.60;;;;;;;20.34;77.63;102004.97;6166092;23;20582;-82
2022/07/23 10:57:16;;;;;;;2.05;0.70;;;;;;;20.34;77.08;102009.41;6161927;23;20048;-83
2022/07/23 11:00:09;;;;;;;1.95;1.05;;;;;;;20.29;74.80;102011.31;6124175;23;20036;-85
2022/07/23 11:02:40;;;;;;;0.90;0.70;;;;;;;20.29;77.63;102009.50;6152857;23;20032;-84
2022/07/23 11:05:15;;;;;;;1.70;0.70;;;;;;;20.23;77.77;102009.63;6182151;23;20024;-84
2022/07/23 11:08:12;;;;;;;2.92;0.60;;;;;;;20.21;76.98;102012.31;6124770;23;20025;-84
2022/07/23 11:10:45;;;;;;;2.08;0.55;;;;;;;20.23;77.28;102010.50;6169028;23;20358;-84
2022/07/23 11:13:22;;;;;;;0.75;0.52;;;;;;;20.30;78.22;102010.38;6187657;23;20032;-84
2022/07/23 11:16:00;;;;;;;1.17;0.68;;;;;;;20.42;78.40;102012.84;6174663;23;20040;-85
2022/07/23 11:18:44;;;;;;;4.00;0.82;;;;;;;20.50;77.28;102008.19;6186486;23;20047;-84
2022/07/23 11:21:31;;;;;;;1.25;0.80;;;;;;;20.41;75.36;102006.56;6177682;23;20048;-85
2022/07/23 11:24:08;;;;;;;1.48;0.98;;;;;;;20.27;77.32;102013.13;6180370;23;20021;-84
2022/07/23 11:26:43;;;;;;;2.50;0.80;;;;;;;20.23;77.91;102013.19;6172759;23;20225;-84
2022/07/23 11:29:25;;;;;;;4.45;0.88;;;;;;;20.29;78.89;102019.34;6189491;23;20024;-84
2022/07/23 11:31:56;;;;;;;1.42;0.75;;;;;;;20.32;79.54;102013.91;6186507;23;20017;-84
2022/07/23 11:34:28;;;;;;;;;;;;;;;20.38;79.60;102016.50;6164083;23;20059;-83
2022/07/23 11:37:01;;;;;;;1.38;0.70;;;;;;;20.36;80.43;102012.94;6144676;23;19920;-84
2022/07/23 11:39:30;;;;;;;2.40;0.98;;;;;;;20.33;80.27;102013.88;6179422;23;20243;-85
2022/07/23 11:42:00;;;;;;;1.65;0.75;;;;;;;20.33;80.97;102013.00;6140361;23;20269;-83